Time;durP1;ratioP1;P1;durP2;ratioP2;P2;SDS_P1;SDS_P2;PMS_P1;PMS_P2;Temp;Humidity;BMP_temperature;BMP_pressure;BME280_temperature;BME280_humidity;BME280_pressure;Samples;Min_cycle;Max_cycle;Signal;HPM_P1;HPM_P2
2022/03/28 00:00:55;;;;;;;466.30;418.03;;;9.70;97.00;;;;;;5021200;28;20197;-61
2022/03/28 00:03:21;;;;;;;486.13;434.40;;;9.70;97.00;;;;;;5017102;28;20221;-61
2022/03/28 00:05:47;;;;;;;481.67;417.93;;;9.70;97.10;;;;;;5022390;28;20289;-60
2022/03/28 00:08:13;;;;;;;480.10;414.23;;;9.70;97.20;;;;;;5024077;28;20239;-60
2022/03/28 00:10:39;;;;;;;512.63;433.93;;;9.70;97.30;;;;;;5021937;28;20668;-61
2022/03/28 00:13:04;;;;;;;500.33;438.07;;;9.60;97.40;;;;;;5020212;28;20207;-60
2022/03/28 00:15:30;;;;;;;480.53;403.70;;;9.60;97.50;;;;;;5014858;28;20204;-60
2022/03/28 00:17:56;;;;;;;506.63;415.50;;;9.50;98.20;;;;;;5008946;28;20276;-60
2022/03/28 00:20:21;;;;;;;510.70;421.73;;;9.40;98.40;;;;;;5007318;28;20222;-60
2022/03/28 00:22:47;;;;;;;514.57;437.00;;;9.40;98.40;;;;;;5012640;28;20221;-60
2022/03/28 00:25:12;;;;;;;494.63;405.90;;;9.20;99.70;;;;;;5025060;28;20342;-64
2022/03/28 00:27:38;;;;;;;489.47;411.83;;;9.10;99.90;;;;;;5016606;28;20248;-62
2022/03/28 00:30:06;;;;;;;496.60;410.70;;;9.10;99.90;;;;;;5007591;28;20200;-60
2022/03/28 00:32:32;;;;;;;516.47;429.07;;;9.30;99.90;;;;;;5023218;28;20205;-60
2022/03/28 00:34:58;;;;;;;511.20;441.37;;;9.30;99.90;;;;;;5016721;28;20220;-61
2022/03/28 00:37:24;;;;;;;515.43;437.03;;;9.30;99.90;;;;;;5006640;28;20297;-59
2022/03/28 00:39:49;;;;;;;501.27;431.93;;;9.40;99.90;;;;;;5017795;28;20252;-59
2022/03/28 00:42:15;;;;;;;514.67;446.87;;;9.50;99.90;;;;;;5011396;28;20567;-60
2022/03/28 00:44:40;;;;;;;493.70;424.17;;;9.50;99.90;;;;;;5023526;28;20224;-59
2022/03/28 00:47:06;;;;;;;499.80;443.27;;;9.50;99.90;;;;;;5010499;28;20304;-59
2022/03/28 00:49:32;;;;;;;500.73;425.80;;;9.50;99.90;;;;;;5013337;28;20190;-59
2022/03/28 00:51:58;;;;;;;490.70;439.13;;;9.40;99.90;;;;;;5016287;28;20204;-64
2022/03/28 00:54:23;;;;;;;478.93;430.03;;;9.40;99.90;;;;;;5012893;28;20688;-61
2022/03/28 00:56:49;;;;;;;466.17;417.60;;;9.40;99.90;;;;;;5024134;28;20294;-62
2022/03/28 00:59:15;;;;;;;456.10;407.17;;;9.30;99.90;;;;;;5021401;28;20655;-60
2022/03/28 01:01:41;;;;;;;467.20;416.93;;;9.30;99.90;;;;;;5023353;28;20294;-62
2022/03/28 01:04:08;;;;;;;477.87;427.97;;;9.30;99.90;;;;;;5018732;28;20271;-63
2022/03/28 01:06:37;;;;;;;480.20;430.53;;;9.30;99.90;;;;;;5004765;28;20208;-62
2022/03/28 01:09:03;;;;;;;482.27;432.57;;;9.40;99.90;;;;;;5008657;28;20202;-61
2022/03/28 01:11:30;;;;;;;475.43;426.20;;;9.50;99.90;;;;;;5005255;28;20218;-60
2022/03/28 01:13:57;;;;;;;472.10;423.73;;;9.50;99.90;;;;;;5012262;28;20687;-61
2022/03/28 01:16:23;;;;;;;449.93;400.93;;;9.50;99.90;;;;;;5006934;28;20209;-61
2022/03/28 01:18:49;;;;;;;483.93;434.50;;;9.50;99.90;;;;;;5013195;28;20192;-60
2022/03/28 01:21:16;;;;;;;458.83;409.87;;;9.30;99.90;;;;;;5012422;28;20550;-61
2022/03/28 01:23:42;;;;;;;477.73;428.53;;;9.30;99.90;;;;;;5017552;28;20196;-61
2022/03/28 01:26:08;;;;;;;472.53;401.43;;;9.40;99.90;;;;;;5012626;28;20228;-61
2022/03/28 01:28:34;;;;;;;447.47;395.47;;;9.40;99.90;;;;;;5006408;28;20189;-62
2022/03/28 01:31:00;;;;;;;449.43;399.90;;;9.30;99.90;;;;;;5009485;28;20201;-62
2022/03/28 01:33:25;;;;;;;441.43;393.30;;;9.30;99.90;;;;;;4997186;28;20679;-61
2022/03/28 01:35:54;;;;;;;434.63;383.00;;;9.20;99.90;;;;;;5017314;28;20299;-61
2022/03/28 01:38:20;;;;;;;442.60;394.07;;;9.20;99.90;;;;;;5006444;28;20264;-61
2022/03/28 01:40:52;;;;;;;443.23;385.23;;;9.10;99.90;;;;;;5008093;28;20200;-60
2022/03/28 01:43:19;;;;;;;448.87;376.73;;;9.10;99.90;;;;;;5017828;28;20240;-61
2022/03/28 01:45:45;;;;;;;454.37;383.13;;;9.10;99.90;;;;;;5011455;28;20641;-60
2022/03/28 01:48:11;;;;;;;446.23;393.33;;;9.10;99.90;;;;;;5010703;28;20276;-61
2022/03/28 01:50:37;;;;;;;486.27;430.47;;;9.00;99.90;;;;;;5010344;28;20219;-61
2022/03/28 01:53:04;;;;;;;451.07;402.57;;;9.00;99.90;;;;;;5013560;28;20202;-61
2022/03/28 01:55:30;;;;;;;493.87;440.57;;;9.00;99.90;;;;;;5017343;28;20661;-61
2022/03/28 01:57:56;;;;;;;446.00;374.93;;;9.00;99.90;;;;;;5021100;28;20243;-60
2022/03/28 02:00:25;;;;;;;484.37;389.07;;;9.00;99.90;;;;;;5015802;28;20194;-60
2022/03/28 02:02:51;;;;;;;473.53;394.80;;;8.90;99.90;;;;;;5014512;28;20296;-60
2022/03/28 02:05:17;;;;;;;459.07;365.83;;;8.80;99.90;;;;;;5017888;28;20333;-60
2022/03/28 02:07:48;;;;;;;464.60;375.13;;;8.80;99.90;;;;;;5012039;28;20207;-61
2022/03/28 02:10:16;;;;;;;470.00;378.07;;;8.80;99.90;;;;;;5021831;28;20204;-60
2022/03/28 02:12:42;;;;;;;476.83;389.97;;;8.60;99.90;;;;;;5015339;28;20685;-60
2022/03/28 02:15:10;;;;;;;473.27;377.33;;;8.70;99.90;;;;;;5020553;28;20553;-60
2022/03/28 02:17:36;;;;;;;467.07;365.10;;;8.70;99.90;;;;;;5010864;28;20210;-61
2022/03/28 02:20:05;;;;;;;476.97;370.73;;;8.50;99.90;;;;;;5016029;28;20185;-60
2022/03/28 02:22:31;;;;;;;483.83;381.40;;;8.60;99.90;;;;;;5021180;28;20199;-60
2022/03/28 02:24:57;;;;;;;481.77;374.63;;;8.60;99.90;;;;;;5021436;28;20365;-60
2022/03/28 02:27:22;;;;;;;479.60;393.17;;;8.60;99.90;;;;;;5012967;28;20233;-60
2022/03/28 02:29:48;;;;;;;467.93;373.07;;;8.60;99.90;;;;;;5017868;28;20234;-60
2022/03/28 02:32:14;;;;;;;480.83;355.17;;;8.50;99.90;;;;;;5017933;28;20207;-63
2022/03/28 02:34:40;;;;;;;506.97;392.20;;;8.50;99.90;;;;;;5010440;28;20288;-61
2022/03/28 02:37:05;;;;;;;491.77;361.93;;;8.50;99.90;;;;;;5004818;28;20224;-61
2022/03/28 02:39:31;;;;;;;515.47;363.67;;;8.40;99.90;;;;;;5013649;28;20241;-61
2022/03/28 02:41:56;;;;;;;561.60;419.63;;;8.40;99.90;;;;;;5007744;28;20192;-61
2022/03/28 02:44:22;;;;;;;527.27;381.40;;;8.40;99.90;;;;;;5019740;28;20243;-61
2022/03/28 02:46:48;;;;;;;567.07;421.40;;;8.40;99.90;;;;;;5018864;28;20219;-61
2022/03/28 02:49:14;;;;;;;544.93;379.87;;;8.40;99.90;;;;;;5013726;28;20201;-60
2022/03/28 02:51:40;;;;;;;591.97;367.30;;;8.30;99.90;;;;;;5004883;28;20583;-61
2022/03/28 02:54:06;;;;;;;595.93;386.77;;;8.30;99.90;;;;;;5009572;28;20230;-62
2022/03/28 02:56:32;;;;;;;555.10;361.50;;;8.30;99.90;;;;;;5012442;28;20180;-61
2022/03/28 02:58:58;;;;;;;546.60;364.73;;;8.30;99.90;;;;;;5012640;28;20287;-62
2022/03/28 03:01:24;;;;;;;525.27;362.57;;;8.20;99.90;;;;;;5005061;28;20636;-61
2022/03/28 03:03:49;;;;;;;544.47;362.47;;;8.20;99.90;;;;;;5020998;28;20205;-60
2022/03/28 03:06:15;;;;;;;529.00;367.13;;;8.20;99.90;;;;;;5016722;28;20226;-60
2022/03/28 03:08:40;;;;;;;511.47;357.17;;;8.20;99.90;;;;;;5003850;28;20200;-62
2022/03/28 03:11:06;;;;;;;540.33;352.23;;;8.20;99.90;;;;;;5012142;28;20227;-62
2022/03/28 03:13:31;;;;;;;551.87;354.20;;;8.20;99.90;;;;;;5008720;28;20204;-61
2022/03/28 03:15:58;;;;;;;564.97;346.27;;;8.20;99.90;;;;;;5013693;28;20223;-60
2022/03/28 03:18:24;;;;;;;570.27;355.70;;;8.10;99.90;;;;;;5011886;28;20208;-60
2022/03/28 03:20:49;;;;;;;553.63;368.10;;;8.00;99.90;;;;;;5014256;28;20198;-61
2022/03/28 03:23:15;;;;;;;679.57;354.13;;;7.80;99.90;;;;;;5014394;28;20203;-61
2022/03/28 03:25:40;;;;;;;729.50;386.60;;;7.70;99.90;;;;;;5016454;28;20223;-60
2022/03/28 03:28:06;;;;;;;652.77;360.63;;;7.70;99.90;;;;;;5024939;28;20546;-59
2022/03/28 03:30:31;;;;;;;663.43;382.23;;;7.80;99.90;;;;;;5017014;28;20278;-60
2022/03/28 03:32:57;;;;;;;688.40;356.77;;;7.80;99.90;;;;;;5006818;28;20208;-61
2022/03/28 03:35:23;;;;;;;570.20;356.83;;;7.90;99.90;;;;;;5016644;28;20226;-60
2022/03/28 03:37:50;;;;;;;672.23;366.73;;;7.80;99.90;;;;;;5023074;28;20193;-60
2022/03/28 03:40:15;;;;;;;355.33;316.17;;;7.70;99.90;;;;;;5011360;28;20282;-60
2022/03/28 03:42:41;;;;;;;369.97;331.87;;;7.80;99.90;;;;;;5006796;28;20291;-60
2022/03/28 03:45:07;;;;;;;366.60;334.57;;;7.70;99.90;;;;;;5008728;28;20306;-60
2022/03/28 03:47:33;;;;;;;413.50;376.53;;;7.80;99.90;;;;;;5022180;28;20218;-60
2022/03/28 03:49:58;;;;;;;348.23;314.80;;;7.90;99.90;;;;;;5009509;28;20204;-60
2022/03/28 03:52:24;;;;;;;375.27;329.43;;;7.90;99.90;;;;;;5016224;28;20192;-61
2022/03/28 03:54:49;;;;;;;338.33;303.97;;;8.00;99.90;;;;;;5007268;28;20244;-60
2022/03/28 03:57:15;;;;;;;357.30;322.20;;;7.80;99.90;;;;;;5013211;28;20750;-61
2022/03/28 03:59:40;;;;;;;344.60;311.13;;;7.80;99.90;;;;;;5015259;28;20210;-61
2022/03/28 04:02:06;;;;;;;334.80;301.73;;;7.70;99.90;;;;;;5006284;28;20274;-61
2022/03/28 04:04:32;;;;;;;350.57;303.00;;;7.70;99.90;;;;;;5009349;28;20731;-61
2022/03/28 04:06:57;;;;;;;330.20;295.93;;;7.60;99.90;;;;;;5014670;28;20215;-63
2022/03/28 04:09:23;;;;;;;315.33;285.47;;;7.60;99.90;;;;;;5020536;28;20258;-61
2022/03/28 04:11:48;;;;;;;348.87;310.20;;;7.50;99.90;;;;;;5007890;28;20251;-60
2022/03/28 04:14:14;;;;;;;354.80;301.43;;;7.50;99.90;;;;;;5007589;28;20274;-62
2022/03/28 04:16:40;;;;;;;423.93;312.80;;;7.40;99.90;;;;;;5015742;28;20204;-60
2022/03/28 04:19:05;;;;;;;304.03;272.43;;;7.30;99.90;;;;;;5013391;28;20287;-61
2022/03/28 04:21:31;;;;;;;296.30;267.87;;;7.30;99.90;;;;;;5006563;28;20215;-60
2022/03/28 04:23:56;;;;;;;295.93;269.43;;;7.10;99.90;;;;;;5011191;28;20199;-60
2022/03/28 04:26:22;;;;;;;321.30;279.07;;;7.10;99.90;;;;;;5013561;28;20235;-63
2022/03/28 04:28:47;;;;;;;605.73;317.50;;;6.90;99.90;;;;;;5015316;28;20317;-62
2022/03/28 04:31:13;;;;;;;573.23;310.90;;;7.10;99.90;;;;;;5014065;28;20250;-62
2022/03/28 04:33:38;;;;;;;510.70;301.17;;;7.10;99.90;;;;;;5017354;28;20204;-61
2022/03/28 04:36:04;;;;;;;477.23;296.27;;;7.10;99.90;;;;;;5019682;28;20199;-60
2022/03/28 04:38:30;;;;;;;591.20;310.53;;;7.10;99.90;;;;;;5023845;28;20243;-59
2022/03/28 04:40:55;;;;;;;568.97;324.27;;;7.10;99.90;;;;;;5014903;28;20191;-60
2022/03/28 04:43:21;;;;;;;590.60;330.03;;;7.00;99.90;;;;;;5014790;28;20229;-60
2022/03/28 04:45:47;;;;;;;624.23;307.57;;;7.00;99.90;;;;;;5005101;28;20208;-62
2022/03/28 04:48:13;;;;;;;609.97;316.43;;;7.00;99.90;;;;;;5014252;28;20596;-61
2022/03/28 04:50:38;;;;;;;598.80;301.83;;;6.90;99.90;;;;;;5016132;28;20203;-61
2022/03/28 04:53:04;;;;;;;638.37;307.50;;;6.80;99.90;;;;;;5007486;28;20250;-61
2022/03/28 04:55:29;;;;;;;627.77;302.10;;;6.80;99.90;;;;;;5020057;28;20269;-61
2022/03/28 04:57:55;;;;;;;578.70;299.20;;;6.70;99.90;;;;;;5014390;28;20185;-61
2022/03/28 05:00:21;;;;;;;625.70;338.70;;;6.70;99.90;;;;;;5014288;28;20187;-62
2022/03/28 05:02:46;;;;;;;643.90;312.63;;;6.80;99.90;;;;;;5014249;28;20211;-62
2022/03/28 05:05:12;;;;;;;652.03;330.07;;;6.60;99.90;;;;;;5019763;28;20279;-61
2022/03/28 05:07:38;;;;;;;653.03;311.23;;;6.60;99.90;;;;;;5016826;28;20180;-62
2022/03/28 05:10:05;;;;;;;606.47;299.40;;;6.70;99.90;;;;;;5017369;28;20204;-62
2022/03/28 05:12:31;;;;;;;600.03;287.50;;;6.60;99.90;;;;;;5011064;28;20280;-63
2022/03/28 05:14:57;;;;;;;581.77;295.50;;;6.60;99.90;;;;;;5014164;28;20248;-63
2022/03/28 05:17:28;;;;;;;628.27;314.70;;;6.70;99.90;;;;;;5013027;28;20724;-62
2022/03/28 05:19:54;;;;;;;653.77;309.60;;;6.70;99.90;;;;;;5010674;28;20206;-62
2022/03/28 05:22:20;;;;;;;592.23;303.33;;;6.70;99.90;;;;;;5010849;28;20652;-63
2022/03/28 05:24:47;;;;;;;594.27;298.33;;;6.80;99.90;;;;;;5021621;28;20188;-63
2022/03/28 05:27:13;;;;;;;632.07;292.67;;;6.80;99.90;;;;;;5012783;28;20273;-62
2022/03/28 05:29:38;;;;;;;627.77;292.70;;;6.80;99.90;;;;;;5017139;28;20196;-62
2022/03/28 05:32:05;;;;;;;633.77;298.47;;;6.70;99.90;;;;;;5005152;28;20210;-61
2022/03/28 05:34:30;;;;;;;648.03;312.87;;;6.70;99.90;;;;;;5010287;28;20255;-61
2022/03/28 05:36:58;;;;;;;605.87;311.87;;;6.70;99.90;;;;;;5004934;28;20192;-68
2022/03/28 05:39:23;;;;;;;644.13;322.60;;;6.70;99.90;;;;;;5023179;28;20202;-62
2022/03/28 05:41:49;;;;;;;645.00;299.70;;;6.60;99.90;;;;;;5012312;28;20200;-68
2022/03/28 05:44:14;;;;;;;664.57;327.93;;;6.60;99.90;;;;;;5016658;28;20271;-60
2022/03/28 05:46:40;;;;;;;644.13;320.23;;;6.70;99.90;;;;;;5016587;28;20692;-59
2022/03/28 05:49:05;;;;;;;641.40;316.60;;;6.60;99.90;;;;;;5014987;28;20203;-60
2022/03/28 05:51:31;;;;;;;593.73;321.30;;;6.70;99.90;;;;;;5010361;28;20202;-62
2022/03/28 05:53:59;;;;;;;620.57;307.73;;;6.60;99.90;;;;;;5023318;28;20219;-60
2022/03/28 05:56:25;;;;;;;674.37;315.40;;;6.70;99.90;;;;;;5016828;28;20663;-60
2022/03/28 05:58:50;;;;;;;666.17;307.27;;;6.80;99.90;;;;;;5017461;28;20198;-61
2022/03/28 06:01:16;;;;;;;644.00;311.77;;;6.90;99.90;;;;;;5019035;28;20202;-61
2022/03/28 06:03:41;;;;;;;661.83;319.30;;;7.00;99.90;;;;;;5015029;28;20275;-61
2022/03/28 06:06:08;;;;;;;672.73;300.60;;;7.00;99.90;;;;;;5013763;28;20208;-60
2022/03/28 06:08:34;;;;;;;679.70;319.87;;;7.00;99.90;;;;;;5013908;28;20581;-60
2022/03/28 06:11:03;;;;;;;688.07;323.03;;;7.10;99.90;;;;;;5013196;28;20207;-60
2022/03/28 06:13:29;;;;;;;683.13;315.87;;;7.10;99.90;;;;;;4988133;28;20558;-60
2022/03/28 06:15:55;;;;;;;681.53;318.27;;;7.10;99.90;;;;;;5016235;28;20196;-60
2022/03/28 06:18:20;;;;;;;669.87;329.13;;;7.10;99.90;;;;;;5009418;28;20192;-60
2022/03/28 06:20:46;;;;;;;689.60;333.80;;;7.30;99.90;;;;;;5004231;28;21081;-61
2022/03/28 06:23:12;;;;;;;673.33;321.47;;;7.30;99.90;;;;;;5017519;28;20267;-60
2022/03/28 06:25:38;;;;;;;704.03;327.90;;;7.40;99.90;;;;;;5013151;28;20622;-61
2022/03/28 06:28:04;;;;;;;721.63;323.47;;;7.40;99.90;;;;;;5015519;28;20276;-60
2022/03/28 06:30:29;;;;;;;750.73;339.13;;;7.50;99.90;;;;;;5014157;28;20714;-60
2022/03/28 06:32:55;;;;;;;725.17;327.20;;;7.60;99.90;;;;;;5013800;28;20714;-60
2022/03/28 06:35:20;;;;;;;754.03;377.07;;;7.60;99.90;;;;;;5011013;28;20219;-60
2022/03/28 06:37:50;;;;;;;725.47;314.07;;;7.70;99.90;;;;;;5025346;28;20172;-61
2022/03/28 06:40:16;;;;;;;752.40;373.03;;;7.70;99.90;;;;;;5019136;28;20670;-60
2022/03/28 06:42:42;;;;;;;558.13;305.50;;;7.70;99.90;;;;;;5018368;28;20307;-61
2022/03/28 06:45:10;;;;;;;752.30;333.67;;;7.80;99.90;;;;;;5003804;28;20287;-60
2022/03/28 06:47:36;;;;;;;695.77;374.50;;;7.70;99.90;;;;;;5018879;28;20282;-61
2022/03/28 06:50:02;;;;;;;687.30;331.00;;;7.70;99.90;;;;;;5023172;28;20203;-61
2022/03/28 06:52:28;;;;;;;712.10;340.50;;;7.70;99.90;;;;;;5007740;28;20682;-61
2022/03/28 06:54:53;;;;;;;705.50;354.43;;;7.80;99.90;;;;;;5010771;28;20526;-61
2022/03/28 06:57:19;;;;;;;734.33;348.20;;;7.80;99.90;;;;;;5013690;28;20542;-61
2022/03/28 06:59:45;;;;;;;740.60;330.97;;;7.90;99.90;;;;;;5018075;28;20183;-61
2022/03/28 07:02:10;;;;;;;719.37;336.80;;;7.90;99.90;;;;;;5019877;28;20702;-61
2022/03/28 07:04:36;;;;;;;697.03;356.37;;;8.00;99.90;;;;;;5011138;28;20185;-61
2022/03/28 07:07:01;;;;;;;681.93;341.93;;;8.00;99.90;;;;;;5017746;28;20306;-61
2022/03/28 07:09:27;;;;;;;498.87;299.20;;;8.10;99.90;;;;;;5017787;28;20203;-61
2022/03/28 07:11:53;;;;;;;753.20;345.27;;;8.20;99.90;;;;;;5007501;28;20212;-60
2022/03/28 07:14:19;;;;;;;750.17;419.10;;;8.30;99.90;;;;;;5023843;28;20212;-60
2022/03/28 07:16:45;;;;;;;780.07;391.53;;;8.50;99.90;;;;;;5025861;28;20274;-60
2022/03/28 07:19:10;;;;;;;585.03;364.57;;;8.40;99.90;;;;;;5023228;28;20654;-60
2022/03/28 07:21:36;;;;;;;350.03;316.73;;;8.50;99.90;;;;;;5004912;28;20267;-60
2022/03/28 07:24:01;;;;;;;601.17;409.07;;;8.60;99.90;;;;;;5020485;28;20200;-60
2022/03/28 07:26:27;;;;;;;130.33;121.47;;;8.60;99.90;;;;;;5006128;28;20236;-61
2022/03/28 07:28:55;;;;;;;161.67;147.27;;;8.70;99.90;;;;;;5023392;28;20226;-60
2022/03/28 07:31:21;;;;;;;54.73;49.03;;;8.80;99.90;;;;;;5010915;28;20210;-60
2022/03/28 07:33:46;;;;;;;36.20;21.43;;;8.80;99.90;;;;;;5019604;28;20216;-60
2022/03/28 07:36:12;;;;;;;556.43;366.77;;;8.90;99.90;;;;;;5014665;28;20243;-61
2022/03/28 07:38:37;;;;;;;533.97;366.60;;;9.00;99.90;;;;;;5008549;28;20687;-60
2022/03/28 07:41:04;;;;;;;488.47;346.83;;;9.00;99.90;;;;;;5025473;28;20235;-61
2022/03/28 07:43:29;;;;;;;457.30;352.23;;;9.10;99.90;;;;;;5024766;28;20195;-61
2022/03/28 07:45:55;;;;;;;483.90;357.57;;;9.20;99.90;;;;;;5014213;28;20203;-60
2022/03/28 07:48:21;;;;;;;504.57;363.40;;;9.30;99.90;;;;;;5016043;28;20188;-60
2022/03/28 07:50:47;;;;;;;481.50;367.83;;;9.30;99.90;;;;;;5016069;28;20282;-61
2022/03/28 07:53:14;;;;;;;446.33;361.27;;;9.40;99.90;;;;;;5015400;28;20190;-61
2022/03/28 07:55:40;;;;;;;207.63;194.07;;;9.50;99.90;;;;;;5017028;28;20209;-61
2022/03/28 07:58:07;;;;;;;218.53;204.53;;;9.60;99.90;;;;;;5026769;28;20173;-61
2022/03/28 08:00:33;;;;;;;378.67;337.07;;;9.60;99.90;;;;;;5016542;28;20198;-61
2022/03/28 08:03:00;;;;;;;466.07;378.80;;;9.70;99.90;;;;;;5022835;28;20730;-61
2022/03/28 08:05:26;;;;;;;483.13;420.47;;;9.70;99.90;;;;;;5021342;28;20606;-61
2022/03/28 08:07:52;;;;;;;433.37;368.33;;;9.70;99.90;;;;;;5020129;28;20203;-61
2022/03/28 08:10:19;;;;;;;485.60;433.50;;;9.80;99.90;;;;;;5020843;28;20816;-62
2022/03/28 08:12:45;;;;;;;440.00;387.10;;;9.90;99.90;;;;;;5018943;28;20275;-62
2022/03/28 08:15:16;;;;;;;487.07;413.20;;;10.00;99.90;;;;;;5019345;28;20667;-63
2022/03/28 08:17:42;;;;;;;454.10;403.17;;;10.00;99.90;;;;;;5012162;28;20184;-63
2022/03/28 08:20:10;;;;;;;470.57;407.63;;;10.10;99.90;;;;;;5023887;28;20728;-60
2022/03/28 08:22:37;;;;;;;465.37;401.97;;;10.20;99.90;;;;;;5017678;28;20226;-62
2022/03/28 08:25:04;;;;;;;459.87;410.07;;;10.20;99.90;;;;;;5016033;28;20225;-62
2022/03/28 08:27:29;;;;;;;457.83;406.80;;;10.30;99.90;;;;;;5019368;28;20238;-62
2022/03/28 08:29:55;;;;;;;489.43;437.47;;;10.40;99.90;;;;;;5015788;28;20200;-62
2022/03/28 08:32:21;;;;;;;484.33;433.10;;;10.40;99.90;;;;;;5012895;28;20267;-62
2022/03/28 08:34:48;;;;;;;486.87;436.97;;;10.50;99.90;;;;;;5019124;28;20225;-62
2022/03/28 08:37:16;;;;;;;462.53;412.90;;;10.60;99.90;;;;;;5005718;28;20253;-62
2022/03/28 08:39:43;;;;;;;456.40;410.23;;;10.60;99.90;;;;;;5015238;28;20206;-62
2022/03/28 08:42:11;;;;;;;496.97;448.57;;;10.70;99.90;;;;;;5019496;28;20283;-62
2022/03/28 08:44:38;;;;;;;484.07;429.37;;;10.70;99.90;;;;;;5020974;28;20208;-63
2022/03/28 08:47:04;;;;;;;492.40;430.93;;;10.70;99.90;;;;;;5006144;28;20629;-63
2022/03/28 08:49:30;;;;;;;523.53;422.93;;;10.90;99.90;;;;;;5010742;28;20212;-63
2022/03/28 08:51:55;;;;;;;467.60;416.37;;;10.90;99.90;;;;;;5014620;28;20198;-61
2022/03/28 08:54:21;;;;;;;503.20;445.37;;;10.90;99.90;;;;;;5015232;28;20240;-67
2022/03/28 08:56:47;;;;;;;530.03;452.07;;;10.90;99.90;;;;;;5017049;28;20990;-63
2022/03/28 08:59:13;;;;;;;503.67;452.27;;;11.00;99.90;;;;;;5018098;28;20289;-65
2022/03/28 09:01:39;;;;;;;532.97;476.83;;;11.20;99.90;;;;;;5016704;28;20185;-63
2022/03/28 09:04:08;;;;;;;502.70;451.33;;;11.30;99.90;;;;;;5019972;28;20251;-62
2022/03/28 09:06:37;;;;;;;548.43;494.67;;;11.30;99.90;;;;;;5013191;28;20194;-62
2022/03/28 09:09:21;;;;;;;509.70;462.93;;;11.30;99.90;;;;;;5017021;28;20936;-63
2022/03/28 09:11:51;;;;;;;547.57;495.63;;;11.50;99.90;;;;;;5013942;28;20739;-62
2022/03/28 09:14:28;;;;;;;517.10;464.20;;;11.60;99.90;;;;;;5018691;28;20206;-65
2022/03/28 09:17:11;;;;;;;540.63;485.97;;;11.60;99.90;;;;;;5015140;28;20214;-64
2022/03/28 09:19:45;;;;;;;512.93;463.30;;;11.60;99.90;;;;;;5016760;28;20240;-62
2022/03/28 09:22:17;;;;;;;522.13;473.00;;;11.70;99.90;;;;;;5005049;28;20210;-60
2022/03/28 09:24:45;;;;;;;540.33;492.57;;;11.80;99.90;;;;;;5021409;28;20195;-63
2022/03/28 09:27:13;;;;;;;540.17;493.30;;;11.90;99.90;;;;;;5004304;28;20227;-63
2022/03/28 09:30:11;;;;;;;562.87;516.67;;;12.00;99.90;;;;;;5016606;28;20198;-61
2022/03/28 09:32:45;;;;;;;557.90;510.17;;;12.10;99.90;;;;;;5013066;28;20208;-61
2022/03/28 09:35:10;;;;;;;538.13;489.07;;;12.20;99.90;;;;;;5020641;28;20223;-62
2022/03/28 09:37:52;;;;;;;558.93;510.63;;;12.20;99.90;;;;;;5012855;28;20894;-61
2022/03/28 09:40:24;;;;;;;575.90;525.33;;;12.30;99.90;;;;;;5020004;28;20210;-65
2022/03/28 09:42:50;;;;;;;562.33;511.97;;;12.20;99.90;;;;;;5012753;28;20196;-61
2022/03/28 09:45:24;;;;;;;588.70;538.63;;;12.30;99.90;;;;;;5014537;28;20263;-61
2022/03/28 09:48:06;;;;;;;584.27;533.50;;;12.40;99.90;;;;;;5015245;28;20239;-61
2022/03/28 09:50:38;;;;;;;563.70;511.83;;;12.50;99.90;;;;;;5017928;28;20256;-60
2022/03/28 09:53:14;;;;;;;593.43;541.87;;;12.60;99.90;;;;;;5015865;28;20767;-61
2022/03/28 09:55:57;;;;;;;574.13;524.43;;;12.70;99.90;;;;;;5015478;28;20297;-62
2022/03/28 09:58:43;;;;;;;589.83;539.40;;;12.70;99.90;;;;;;5014280;28;20272;-61
2022/03/28 10:01:18;;;;;;;571.17;522.17;;;12.60;99.90;;;;;;5014855;28;20282;-61
2022/03/28 10:03:49;;;;;;;557.30;514.97;;;12.80;99.90;;;;;;5015199;28;20233;-61
2022/03/28 10:06:15;;;;;;;546.33;511.43;;;12.90;99.90;;;;;;5018160;28;20203;-71
2022/03/28 10:08:41;;;;;;;488.10;457.57;;;13.00;99.90;;;;;;5008465;28;20211;-68
2022/03/28 10:11:07;;;;;;;548.00;510.73;;;13.10;99.70;;;;;;5012817;28;20578;-64
2022/03/28 10:13:33;;;;;;;546.83;511.87;;;13.30;99.30;;;;;;5005563;28;20202;-64
2022/03/28 10:16:00;;;;;;;559.80;522.13;;;13.40;99.00;;;;;;5007449;28;20307;-63
2022/03/28 10:18:30;;;;;;;605.80;562.63;;;13.40;98.30;;;;;;5007158;28;20283;-64
2022/03/28 10:20:58;;;;;;;587.13;543.27;;;13.50;98.20;;;;;;5012196;28;20196;-65
2022/03/28 10:23:32;;;;;;;587.20;548.13;;;13.50;98.00;;;;;;5010939;28;20207;-65
2022/03/28 10:25:58;;;;;;;611.13;566.10;;;13.50;98.10;;;;;;5016236;28;20269;-67
2022/03/28 10:28:24;;;;;;;629.17;583.67;;;13.50;98.00;;;;;;5020657;28;20201;-68
2022/03/28 10:31:07;;;;;;;590.80;547.50;;;13.60;98.00;;;;;;5023019;28;20192;-67
2022/03/28 10:33:33;;;;;;;535.87;501.10;;;13.60;97.80;;;;;;5022472;28;20562;-68
2022/03/28 10:36:03;;;;;;;519.10;485.13;;;13.70;97.60;;;;;;5020317;28;20190;-70
2022/03/28 10:38:28;;;;;;;537.67;504.00;;;13.80;97.50;;;;;;5020933;28;20207;-67
2022/03/28 10:40:57;;;;;;;602.63;560.03;;;13.90;97.20;;;;;;5022916;28;20179;-66
2022/03/28 10:43:25;;;;;;;599.93;558.23;;;13.90;96.80;;;;;;5022726;28;20731;-70
2022/03/28 10:46:02;;;;;;;571.20;533.77;;;13.90;96.80;;;;;;5023902;28;20195;-67
2022/03/28 10:48:51;;;;;;;579.60;540.93;;;14.00;96.10;;;;;;5021536;28;20686;-69
2022/03/28 10:51:21;;;;;;;625.63;583.20;;;14.20;96.20;;;;;;5023331;28;20188;-65
2022/03/28 10:53:52;;;;;;;607.60;566.00;;;14.30;96.30;;;;;;5022978;28;20223;-65
2022/03/28 10:56:20;;;;;;;588.10;548.23;;;14.40;95.80;;;;;;5011599;28;20242;-63
2022/03/28 10:58:52;;;;;;;652.07;603.60;;;14.40;95.70;;;;;;5021603;28;20200;-69
2022/03/28 11:01:26;;;;;;;601.27;559.00;;;14.40;95.40;;;;;;5026951;28;20196;-65
2022/03/28 11:03:57;;;;;;;224.27;210.67;;;14.60;95.60;;;;;;5030719;28;20202;-78
2022/03/28 11:06:50;;;;;;;126.83;119.53;;;14.80;95.30;;;;;;5014350;28;20989;-70
2022/03/28 11:09:45;;;;;;;83.23;77.43;;;14.90;95.20;;;;;;5025750;28;20195;-71
2022/03/28 11:12:19;;;;;;;29.27;14.30;;;15.00;94.70;;;;;;5019313;28;20257;-72
2022/03/28 11:14:54;;;;;;;24.40;14.67;;;15.10;93.90;;;;;;5018338;28;20207;-72
2022/03/28 11:17:24;;;;;;;58.50;24.77;;;15.10;94.10;;;;;;5019543;28;20219;-71
2022/03/28 11:20:10;;;;;;;26.40;13.30;;;15.30;93.90;;;;;;5031422;28;20183;-71
2022/03/28 11:23:15;;;;;;;29.57;16.23;;;15.40;93.90;;;;;;5025093;28;20192;-70
2022/03/28 11:25:56;;;;;;;24.33;14.57;;;15.60;93.70;;;;;;4997360;28;20706;-69
2022/03/28 11:28:21;;;;;;;30.63;13.70;;;15.70;92.60;;;;;;5019177;28;20696;-69
2022/03/28 11:30:58;;;;;;;25.97;12.87;;;15.70;92.70;;;;;;5014312;28;20199;-69
2022/03/28 11:33:31;;;;;;;28.30;17.97;;;15.70;92.60;;;;;;5019770;28;20425;-68
2022/03/28 11:36:05;;;;;;;19.03;10.70;;;15.70;92.50;;;;;;5016635;28;20219;-67
2022/03/28 11:38:36;;;;;;;21.47;10.93;;;15.90;91.90;;;;;;5022689;28;20202;-68
2022/03/28 11:41:04;;;;;;;23.93;12.33;;;16.10;91.90;;;;;;5011649;28;20195;-66
2022/03/28 11:43:40;;;;;;;23.77;11.53;;;16.20;91.60;;;;;;5015033;28;20231;-67
2022/03/28 11:46:25;;;;;;;22.87;9.83;;;16.50;91.70;;;;;;5009814;28;20180;-66
2022/03/28 11:49:00;;;;;;;25.67;11.63;;;16.50;90.50;;;;;;5006077;28;20504;-67
2022/03/28 11:51:30;;;;;;;23.73;11.53;;;16.40;90.00;;;;;;5025236;28;20187;-65
2022/03/28 11:54:04;;;;;;;20.73;10.27;;;16.60;90.30;;;;;;5008407;28;20227;-67
2022/03/28 11:56:32;;;;;;;28.90;12.53;;;16.60;90.30;;;;;;5017077;28;20329;-66
2022/03/28 11:59:06;;;;;;;23.10;10.77;;;16.70;90.50;;;;;;5018704;28;20246;-67
2022/03/28 12:01:32;;;;;;;28.80;18.10;;;16.80;90.10;;;;;;5013079;28;20635;-69
2022/03/28 12:03:58;;;;;;;21.90;10.23;;;16.90;89.70;;;;;;5007013;28;20287;-67
2022/03/28 12:06:31;;;;;;;16.30;8.83;;;17.00;89.10;;;;;;5016805;28;20213;-64
2022/03/28 12:08:58;;;;;;;22.70;10.20;;;17.00;88.90;;;;;;5020410;28;20298;-63
2022/03/28 12:11:24;;;;;;;23.50;10.97;;;16.90;89.20;;;;;;5017555;28;20281;-63
2022/03/28 12:13:51;;;;;;;25.47;10.33;;;17.10;89.40;;;;;;5009030;28;20234;-61
2022/03/28 12:16:17;;;;;;;17.73;8.30;;;17.10;88.80;;;;;;5011144;28;20200;-62
2022/03/28 12:18:43;;;;;;;18.63;9.33;;;17.00;87.70;;;;;;5006287;28;20219;-62